createdAt,value
2017-12-23T00:00:18.375Z,18.92
2017-12-23T00:01:20.896Z,19.62
2017-12-23T00:02:23.481Z,20.23
2017-12-23T00:03:25.989Z,20.67
2017-12-23T00:04:28.465Z,20.10
2017-12-23T00:05:30.952Z,21.65
2017-12-23T00:06:33.432Z,20.90
2017-12-23T00:07:35.914Z,23.20
2017-12-23T00:08:38.500Z,21.73
2017-12-23T00:09:41.071Z,22.08
2017-12-23T00:10:43.576Z,22.40
2017-12-23T00:11:46.120Z,21.60
2017-12-23T00:12:48.640Z,21.35
2017-12-23T00:13:51.160Z,23.42
2017-12-23T00:14:53.663Z,22.95
2017-12-23T00:15:56.214Z,22.52
2017-12-23T00:16:58.670Z,21.65
2017-12-23T00:18:01.130Z,20.62
2017-12-23T00:19:03.658Z,22.27
2017-12-23T00:20:06.150Z,22.50
2017-12-23T00:21:08.713Z,22.02
2017-12-23T00:22:11.202Z,23.60
2017-12-23T00:23:13.706Z,22.80
2017-12-23T00:24:16.235Z,23.20
2017-12-23T00:25:18.710Z,22.67
2017-12-23T00:26:21.234Z,24.40
2017-12-23T00:27:23.720Z,23.60
2017-12-23T00:28:26.219Z,25.98
2017-12-23T00:29:28.742Z,25.23
2017-12-23T00:30:31.231Z,25.90
2017-12-23T00:31:33.731Z,25.30
2017-12-23T00:32:36.233Z,27.60
2017-12-23T00:33:38.709Z,26.40
2017-12-23T00:34:41.204Z,26.90
2017-12-23T00:35:43.693Z,26.20
2017-12-23T00:36:46.183Z,28.15
2017-12-23T00:37:48.670Z,29.00
2017-12-23T00:38:51.312Z,28.50
2017-12-23T00:39:53.832Z,27.27
2017-12-23T00:40:56.384Z,27.50
2017-12-23T00:41:58.904Z,26.77
2017-12-23T00:43:01.560Z,26.75
2017-12-23T00:44:04.081Z,27.55
2017-12-23T00:45:06.563Z,28.87
2017-12-23T00:46:09.034Z,27.50
2017-12-23T00:47:11.565Z,27.05
2017-12-23T00:48:14.038Z,25.92
2017-12-23T00:49:16.563Z,27.33
2017-12-23T00:50:19.077Z,27.33
2017-12-23T00:51:21.562Z,25.50
2017-12-23T00:52:24.078Z,26.10
2017-12-23T00:53:26.558Z,25.58
2017-12-23T00:54:29.034Z,26.12
2017-12-23T00:55:31.541Z,27.15
2017-12-23T00:56:34.025Z,25.10
2017-12-23T00:57:36.539Z,27.40
2017-12-23T00:58:39.132Z,28.42
2017-12-23T00:59:41.622Z,27.77
2017-12-23T01:00:44.122Z,27.25
2017-12-23T01:01:46.683Z,28.15
2017-12-23T01:02:49.209Z,26.55
2017-12-23T01:03:51.744Z,26.37
2017-12-23T01:04:54.364Z,26.50
2017-12-23T01:05:56.964Z,26.98
2017-12-23T01:06:59.529Z,25.73
2017-12-23T01:08:02.000Z,26.80
2017-12-23T01:09:04.479Z,28.30
2017-12-23T01:10:06.956Z,27.58
2017-12-23T01:11:09.629Z,27.48
2017-12-23T01:12:12.113Z,28.55
2017-12-23T01:13:14.608Z,26.75
2017-12-23T01:14:17.079Z,27.20
2017-12-23T01:15:19.662Z,28.30
2017-12-23T01:16:22.151Z,27.15
2017-12-23T01:17:24.637Z,27.95
2017-12-23T01:18:27.133Z,27.10
2017-12-23T01:19:29.619Z,26.80
2017-12-23T01:20:32.968Z,27.48
2017-12-23T01:21:35.516Z,29.02
2017-12-23T01:22:37.986Z,27.50
2017-12-23T01:23:40.480Z,28.87
2017-12-23T01:24:42.966Z,27.67
2017-12-23T01:25:45.465Z,26.77
2017-12-23T01:26:48.046Z,26.55
2017-12-23T01:27:50.522Z,24.92
2017-12-23T01:28:52.999Z,26.90
2017-12-23T01:29:55.498Z,27.40
2017-12-23T01:30:57.976Z,27.37
2017-12-23T01:32:00.510Z,26.42
2017-12-23T01:33:02.978Z,25.70
2017-12-23T01:34:05.632Z,26.60
2017-12-23T01:35:08.136Z,23.62
2017-12-23T01:36:10.742Z,24.27
2017-12-23T01:37:13.274Z,24.85
2017-12-23T01:38:15.806Z,25.73
2017-12-23T01:39:18.314Z,25.45
2017-12-23T01:40:20.956Z,25.00
2017-12-23T01:41:23.603Z,24.08
2017-12-23T01:42:26.128Z,25.90
2017-12-23T01:43:28.743Z,25.20
2017-12-23T01:44:31.292Z,24.48
2017-12-23T01:45:33.834Z,24.10
2017-12-23T01:46:36.311Z,25.05
2017-12-23T01:47:38.812Z,25.52
2017-12-23T01:48:41.270Z,25.70
2017-12-23T01:49:43.756Z,24.02
2017-12-23T01:50:46.330Z,24.75
2017-12-23T01:51:48.844Z,25.23
2017-12-23T01:52:51.384Z,23.67
2017-12-23T01:53:53.865Z,24.98
2017-12-23T01:54:56.371Z,25.85
2017-12-23T01:55:58.856Z,24.42
2017-12-23T01:57:01.327Z,26.00
2017-12-23T01:58:03.830Z,24.45
2017-12-23T01:59:06.306Z,23.20
2017-12-23T02:00:08.810Z,24.60
2017-12-23T02:01:11.285Z,25.60
2017-12-23T02:02:13.790Z,23.12
2017-12-23T02:03:16.358Z,24.73
2017-12-23T02:04:18.836Z,24.05
2017-12-23T02:05:21.316Z,22.60
2017-12-23T02:06:23.795Z,25.23
2017-12-23T02:07:26.280Z,24.75
2017-12-23T02:08:28.766Z,23.95
2017-12-23T02:09:31.256Z,25.08
2017-12-23T02:10:33.725Z,23.65
2017-12-23T02:11:36.248Z,21.20
2017-12-23T02:12:38.823Z,22.23
2017-12-23T02:13:41.324Z,21.98
2017-12-23T02:14:43.783Z,21.33
2017-12-23T02:15:46.257Z,21.40
2017-12-23T02:16:48.723Z,20.62
2017-12-23T02:17:51.205Z,24.30
2017-12-23T02:18:53.702Z,21.25
2017-12-23T02:19:56.181Z,21.52
2017-12-23T02:20:58.656Z,22.05
2017-12-23T02:22:01.113Z,22.00
2017-12-23T02:23:03.589Z,21.73
2017-12-23T02:24:06.100Z,20.80
2017-12-23T02:25:08.566Z,22.35
2017-12-23T02:26:11.041Z,21.00
2017-12-23T02:27:13.498Z,20.83
2017-12-23T02:28:15.975Z,22.13
2017-12-23T02:29:18.474Z,22.17
2017-12-23T02:30:20.954Z,20.25
2017-12-23T02:31:23.414Z,21.37
2017-12-23T02:32:25.898Z,19.15
2017-12-23T02:33:28.366Z,21.92
2017-12-23T02:34:30.859Z,21.77
2017-12-23T02:35:33.337Z,20.73
2017-12-23T02:36:35.819Z,21.67
2017-12-23T02:37:38.356Z,22.02
2017-12-23T02:38:40.832Z,21.10
2017-12-23T02:39:43.329Z,22.00
2017-12-23T02:40:45.803Z,22.30
2017-12-23T02:41:49.407Z,19.67
2017-12-23T02:42:51.889Z,21.45
2017-12-23T02:43:54.351Z,20.60
2017-12-23T02:44:56.877Z,22.10
2017-12-23T02:45:59.354Z,21.40
2017-12-23T02:47:01.847Z,21.35
2017-12-23T02:48:04.306Z,21.77
2017-12-23T02:49:06.783Z,19.67
2017-12-23T02:50:09.286Z,21.50
2017-12-23T02:51:11.761Z,21.77
2017-12-23T02:52:14.223Z,20.62
2017-12-23T02:53:16.708Z,22.20
2017-12-23T02:54:19.166Z,18.95
2017-12-23T02:55:21.664Z,20.23
2017-12-23T02:56:24.126Z,21.65
2017-12-23T02:57:26.617Z,21.75
2017-12-23T02:58:29.084Z,21.27
2017-12-23T02:59:31.560Z,21.80
2017-12-23T03:00:34.043Z,22.52
2017-12-23T03:01:36.517Z,23.25
2017-12-23T03:02:38.992Z,22.67
2017-12-23T03:03:41.468Z,22.15
2017-12-23T03:04:43.930Z,20.48
2017-12-23T03:05:46.406Z,24.33
2017-12-23T03:06:48.870Z,24.37
2017-12-23T03:07:51.330Z,22.62
2017-12-23T03:08:53.790Z,23.77
2017-12-23T03:09:56.245Z,21.73
2017-12-23T03:10:58.722Z,24.02
2017-12-23T03:12:01.200Z,23.75
2017-12-23T03:13:03.664Z,23.10
2017-12-23T03:14:06.143Z,22.05
2017-12-23T03:15:08.604Z,22.85
2017-12-23T03:16:11.103Z,22.13
2017-12-23T03:17:13.558Z,22.45
2017-12-23T03:18:16.030Z,23.00
2017-12-23T03:19:18.508Z,23.45
2017-12-23T03:20:20.983Z,22.95
2017-12-23T03:21:23.469Z,25.48
2017-12-23T03:22:25.930Z,24.35
2017-12-23T03:23:28.390Z,26.90
2017-12-23T03:24:30.872Z,26.58
2017-12-23T03:25:33.338Z,26.08
2017-12-23T03:26:35.836Z,23.98
2017-12-23T03:27:38.307Z,26.60
2017-12-23T03:28:40.766Z,24.77
2017-12-23T03:29:43.222Z,25.00
2017-12-23T03:30:45.683Z,24.70
2017-12-23T03:31:49.398Z,25.08
2017-12-23T03:32:51.869Z,26.65
2017-12-23T03:33:54.344Z,26.15
2017-12-23T03:34:56.823Z,23.45
2017-12-23T03:35:59.286Z,26.35
2017-12-23T03:37:01.762Z,27.20
2017-12-23T03:38:04.225Z,24.87
2017-12-23T03:39:06.684Z,25.85
2017-12-23T03:40:09.168Z,25.98
2017-12-23T03:41:11.626Z,24.95
2017-12-23T03:42:14.128Z,26.62
2017-12-23T03:43:16.590Z,23.58
2017-12-23T03:44:19.069Z,24.27
2017-12-23T03:45:21.534Z,25.40
2017-12-23T03:46:23.998Z,25.45
2017-12-23T03:47:26.491Z,24.37
2017-12-23T03:48:28.972Z,26.58
2017-12-23T03:49:31.439Z,23.00
2017-12-23T03:50:33.905Z,22.15
2017-12-23T03:51:36.379Z,22.60
2017-12-23T03:52:38.870Z,21.12
2017-12-23T03:53:41.343Z,18.87
2017-12-23T03:54:43.806Z,19.15
2017-12-23T03:55:46.300Z,20.08
2017-12-23T03:56:48.762Z,18.62
2017-12-23T03:57:52.445Z,17.25
2017-12-23T03:58:54.922Z,17.37
2017-12-23T03:59:57.386Z,18.52
2017-12-23T04:00:59.846Z,19.48
2017-12-23T04:02:02.335Z,18.37
2017-12-23T04:03:04.826Z,16.52
2017-12-23T04:04:07.286Z,16.90
2017-12-23T04:05:09.747Z,18.33
2017-12-23T04:06:12.235Z,17.87
2017-12-23T04:07:14.724Z,18.60
2017-12-23T04:08:17.208Z,18.15
2017-12-23T04:09:19.671Z,18.60
2017-12-23T04:10:22.148Z,18.70
2017-12-23T04:11:24.623Z,18.73
2017-12-23T04:12:27.091Z,19.92
2017-12-23T04:13:30.191Z,19.17
2017-12-23T04:14:32.655Z,17.77
2017-12-23T04:15:35.115Z,18.42
2017-12-23T04:16:37.588Z,18.08
2017-12-23T04:17:40.076Z,19.37
2017-12-23T04:18:42.576Z,20.23
2017-12-23T04:19:45.038Z,20.27
2017-12-23T04:20:47.494Z,20.00
2017-12-23T04:21:49.959Z,18.73
2017-12-23T04:22:52.419Z,18.02
2017-12-23T04:23:54.912Z,18.65
2017-12-23T04:24:57.367Z,18.92
2017-12-23T04:25:59.836Z,20.83
2017-12-23T04:27:02.295Z,20.92
2017-12-23T04:28:04.783Z,18.62
2017-12-23T04:29:07.280Z,20.05
2017-12-23T04:30:09.763Z,20.15
2017-12-23T04:31:12.217Z,18.50
2017-12-23T04:32:14.725Z,20.25
2017-12-23T04:33:17.181Z,20.35
2017-12-23T04:34:19.670Z,19.73
2017-12-23T04:35:22.222Z,18.73
2017-12-23T04:36:24.708Z,18.37
2017-12-23T04:37:27.182Z,18.55
2017-12-23T04:38:29.640Z,20.23
2017-12-23T04:39:32.136Z,19.33
2017-12-23T04:40:34.614Z,19.90
2017-12-23T04:41:37.082Z,17.52
2017-12-23T04:42:39.543Z,19.25
2017-12-23T04:43:42.016Z,19.00
2017-12-23T04:44:44.516Z,18.42
2017-12-23T04:45:46.978Z,18.60
2017-12-23T04:46:49.442Z,18.27
2017-12-23T04:47:51.906Z,18.08
2017-12-23T04:48:54.413Z,19.70
2017-12-23T04:49:56.894Z,18.90
2017-12-23T04:50:59.393Z,18.85
2017-12-23T04:52:01.867Z,18.90
2017-12-23T04:53:04.389Z,18.98
2017-12-23T04:54:06.850Z,19.45
2017-12-23T04:55:09.358Z,17.55
2017-12-23T04:56:11.836Z,18.50
2017-12-23T04:57:14.308Z,17.60
2017-12-23T04:58:16.777Z,16.73
2017-12-23T04:59:19.265Z,18.02
2017-12-23T05:00:21.746Z,18.40
2017-12-23T05:01:24.211Z,16.92
2017-12-23T05:02:26.688Z,18.02
2017-12-23T05:03:29.151Z,15.90
2017-12-23T05:04:31.628Z,15.93
2017-12-23T05:05:34.106Z,17.65
2017-12-23T05:06:36.564Z,16.40
2017-12-23T05:07:39.022Z,16.70
2017-12-23T05:08:41.497Z,18.50
2017-12-23T05:09:43.964Z,16.83
2017-12-23T05:10:46.456Z,16.90
2017-12-23T05:11:48.931Z,17.65
2017-12-23T05:12:51.398Z,15.43
2017-12-23T05:13:53.872Z,17.40
2017-12-23T05:14:56.337Z,17.77
2017-12-23T05:15:58.869Z,17.15
2017-12-23T05:17:01.381Z,17.65
2017-12-23T05:18:03.878Z,17.30
2017-12-23T05:19:06.356Z,16.50
2017-12-23T05:20:08.839Z,18.20
2017-12-23T05:21:11.322Z,17.65
2017-12-23T05:22:13.790Z,17.85
2017-12-23T05:23:16.249Z,16.90
2017-12-23T05:24:18.710Z,16.80
2017-12-23T05:25:21.170Z,17.55
2017-12-23T05:26:23.656Z,17.40
2017-12-23T05:27:26.132Z,17.77
2017-12-23T05:28:28.594Z,18.00
2017-12-23T05:29:31.050Z,17.85
2017-12-23T05:30:33.525Z,19.80
2017-12-23T05:31:36.020Z,20.40
2017-12-23T05:32:38.496Z,18.17
2017-12-23T05:33:40.981Z,22.35
2017-12-23T05:34:43.446Z,23.58
2017-12-23T05:35:45.920Z,20.42
2017-12-23T05:36:48.419Z,20.27
2017-12-23T05:37:50.900Z,19.48
2017-12-23T05:38:53.358Z,18.02
2017-12-23T05:39:55.831Z,22.90
2017-12-23T05:40:58.289Z,21.17
2017-12-23T05:42:00.788Z,20.45
2017-12-23T05:43:03.265Z,21.83
2017-12-23T05:44:05.727Z,21.80
2017-12-23T05:45:08.189Z,22.25
2017-12-23T05:46:10.668Z,21.58
2017-12-23T05:47:13.172Z,22.02
2017-12-23T05:48:15.657Z,22.25
2017-12-23T05:49:18.141Z,23.50
2017-12-23T05:50:20.602Z,22.35
2017-12-23T05:51:23.062Z,22.55
2017-12-23T05:52:25.546Z,23.30
2017-12-23T05:53:28.033Z,22.30
2017-12-23T05:54:30.519Z,23.27
2017-12-23T05:55:32.996Z,24.87
2017-12-23T05:56:35.458Z,24.37
2017-12-23T05:57:37.969Z,23.95
2017-12-23T05:58:40.426Z,23.25
2017-12-23T05:59:42.884Z,23.17
2017-12-23T06:00:45.364Z,22.35
2017-12-23T06:01:47.826Z,24.27
2017-12-23T06:02:50.301Z,23.25
2017-12-23T06:03:52.766Z,24.48
2017-12-23T06:04:55.223Z,23.05
2017-12-23T06:05:57.704Z,24.23
2017-12-23T06:07:00.193Z,23.73
2017-12-23T06:08:02.692Z,23.20
2017-12-23T06:09:05.150Z,24.12
2017-12-23T06:10:07.625Z,22.77
2017-12-23T06:11:10.093Z,22.77
2017-12-23T06:12:12.557Z,25.90
2017-12-23T06:13:15.052Z,23.00
2017-12-23T06:14:17.534Z,24.30
2017-12-23T06:15:20.009Z,22.67
2017-12-23T06:16:22.468Z,21.58
2017-12-23T06:17:24.926Z,23.90
2017-12-23T06:18:27.411Z,24.27
2017-12-23T06:19:29.892Z,24.55
2017-12-23T06:20:32.372Z,24.90
2017-12-23T06:21:34.830Z,23.83
2017-12-23T06:22:37.320Z,24.77
2017-12-23T06:23:39.814Z,23.33
2017-12-23T06:24:42.274Z,24.95
2017-12-23T06:25:44.738Z,24.08
2017-12-23T06:26:47.209Z,25.80
2017-12-23T06:27:49.691Z,24.17
2017-12-23T06:28:52.188Z,26.67
2017-12-23T06:29:54.701Z,25.37
2017-12-23T06:30:57.162Z,25.60
2017-12-23T06:31:59.645Z,27.10
2017-12-23T06:33:02.120Z,23.90
2017-12-23T06:34:04.608Z,25.12
2017-12-23T06:35:07.074Z,25.33
2017-12-23T06:36:09.588Z,24.23
2017-12-23T06:37:12.049Z,25.12
2017-12-23T06:38:14.895Z,26.08
2017-12-23T06:39:17.393Z,28.42
2017-12-23T06:40:19.860Z,25.08
2017-12-23T06:41:22.356Z,26.15
2017-12-23T06:42:24.844Z,26.92
2017-12-23T06:43:27.421Z,27.40
2017-12-23T06:44:29.916Z,25.27
2017-12-23T06:45:32.412Z,26.75
2017-12-23T06:46:34.874Z,26.87
2017-12-23T06:47:37.335Z,27.17
2017-12-23T06:48:39.818Z,27.27
2017-12-23T06:49:42.310Z,28.62
2017-12-23T06:50:44.770Z,26.55
2017-12-23T06:51:47.244Z,26.50
2017-12-23T06:52:49.716Z,27.45
2017-12-23T06:53:52.174Z,28.73
2017-12-23T06:54:54.687Z,28.33
2017-12-23T06:55:57.166Z,28.75
2017-12-23T06:56:59.664Z,26.70
2017-12-23T06:58:02.156Z,27.17
2017-12-23T06:59:04.618Z,26.67
2017-12-23T07:00:07.124Z,27.37
2017-12-23T07:01:09.593Z,26.50
2017-12-23T07:02:12.395Z,27.87
2017-12-23T07:03:14.880Z,26.75
2017-12-23T07:04:17.356Z,28.62
2017-12-23T07:05:19.849Z,26.83
2017-12-23T07:06:22.371Z,29.50
2017-12-23T07:07:24.828Z,27.62
2017-12-23T07:08:27.294Z,28.30
2017-12-23T07:09:29.784Z,26.83
2017-12-23T07:10:32.284Z,27.08
2017-12-23T07:11:34.761Z,24.80
2017-12-23T07:12:37.214Z,24.02
2017-12-23T07:13:39.726Z,25.83
2017-12-23T07:14:42.196Z,24.55
2017-12-23T07:15:44.697Z,21.85
2017-12-23T07:16:47.160Z,27.17
2017-12-23T07:17:49.635Z,24.67
2017-12-23T07:18:52.112Z,23.83
2017-12-23T07:19:54.590Z,22.05
2017-12-23T07:20:57.082Z,24.40
2017-12-23T07:21:59.556Z,25.12
2017-12-23T07:23:02.020Z,23.38
2017-12-23T07:24:04.505Z,20.23
2017-12-23T07:25:06.964Z,23.12
2017-12-23T07:26:09.473Z,22.08
2017-12-23T07:27:11.930Z,22.23
2017-12-23T07:28:14.415Z,22.35
2017-12-23T07:29:16.921Z,20.88
2017-12-23T07:30:19.486Z,21.65
2017-12-23T07:31:21.981Z,19.83
2017-12-23T07:32:24.506Z,18.58
2017-12-23T07:33:26.970Z,20.77
2017-12-23T07:34:29.434Z,17.83
2017-12-23T07:35:31.911Z,19.60
2017-12-23T07:36:34.420Z,20.05
2017-12-23T07:37:36.912Z,19.60
2017-12-23T07:38:39.424Z,18.85
2017-12-23T07:39:41.908Z,20.65
2017-12-23T07:40:44.392Z,19.25
2017-12-23T07:41:46.889Z,19.25
2017-12-23T07:42:49.358Z,19.17
2017-12-23T07:43:51.840Z,19.70
2017-12-23T07:44:54.348Z,20.73
2017-12-23T07:45:56.816Z,19.10
2017-12-23T07:46:59.313Z,19.20
2017-12-23T07:48:01.779Z,18.85
2017-12-23T07:49:04.261Z,19.55
2017-12-23T07:50:06.730Z,19.37
2017-12-23T07:51:09.214Z,18.83
2017-12-23T07:52:11.695Z,18.87
2017-12-23T07:53:14.169Z,17.73
2017-12-23T07:54:16.652Z,20.33
2017-12-23T07:55:19.107Z,19.35
2017-12-23T07:56:21.568Z,17.77
2017-12-23T07:57:24.420Z,18.95
2017-12-23T07:58:26.925Z,18.33
2017-12-23T07:59:29.437Z,18.40
2017-12-23T08:00:31.912Z,17.75
2017-12-23T08:01:34.384Z,17.95
2017-12-23T08:02:36.872Z,17.87
2017-12-23T08:03:39.354Z,18.80
2017-12-23T08:04:41.828Z,17.55
2017-12-23T08:05:44.305Z,19.27
2017-12-23T08:06:46.766Z,19.65
2017-12-23T08:07:49.250Z,18.35
2017-12-23T08:08:51.725Z,17.27
2017-12-23T08:09:54.194Z,19.98
2017-12-23T08:10:56.668Z,18.98
2017-12-23T08:11:59.188Z,19.15
2017-12-23T08:13:01.666Z,18.50
2017-12-23T08:14:04.139Z,18.90
2017-12-23T08:15:06.620Z,18.92
2017-12-23T08:16:09.108Z,17.98
2017-12-23T08:17:11.580Z,20.25
2017-12-23T08:18:14.077Z,20.23
2017-12-23T08:19:16.555Z,21.12
2017-12-23T08:20:19.014Z,19.23
2017-12-23T08:21:21.479Z,20.10
2017-12-23T08:22:23.948Z,21.23
2017-12-23T08:23:26.439Z,21.17
2017-12-23T08:24:28.916Z,21.42
2017-12-23T08:25:31.403Z,21.90
2017-12-23T08:26:33.890Z,21.05
2017-12-23T08:27:36.346Z,20.27
2017-12-23T08:28:38.826Z,20.52
2017-12-23T08:29:41.295Z,22.13
2017-12-23T08:30:43.769Z,20.30
2017-12-23T08:31:46.226Z,21.85
2017-12-23T08:32:48.705Z,21.90
2017-12-23T08:33:51.182Z,21.48
2017-12-23T08:34:54.003Z,22.85
2017-12-23T08:35:56.569Z,22.42
2017-12-23T08:36:59.033Z,22.13
2017-12-23T08:38:01.513Z,23.62
2017-12-23T08:39:04.013Z,27.42
2017-12-23T08:40:06.489Z,25.55
2017-12-23T08:41:08.969Z,25.42
2017-12-23T08:42:11.440Z,23.73
2017-12-23T08:43:13.910Z,25.12
2017-12-23T08:44:16.390Z,22.62
2017-12-23T08:45:18.866Z,22.67
2017-12-23T08:46:21.336Z,23.40
2017-12-23T08:47:23.794Z,25.75
2017-12-23T08:48:26.249Z,24.15
2017-12-23T08:49:28.730Z,23.05
2017-12-23T08:50:31.199Z,21.50
2017-12-23T08:51:33.671Z,22.23
2017-12-23T08:52:36.154Z,23.60
2017-12-23T08:53:38.614Z,23.92
2017-12-23T08:54:41.145Z,22.60
2017-12-23T08:55:43.582Z,22.27
2017-12-23T08:56:46.061Z,23.02
2017-12-23T08:57:48.527Z,21.42
2017-12-23T08:58:50.983Z,21.75
2017-12-23T08:59:53.482Z,23.30
2017-12-23T09:00:55.965Z,25.17
2017-12-23T09:01:58.437Z,21.90
2017-12-23T09:03:00.912Z,23.27
2017-12-23T09:04:03.366Z,23.73
2017-12-23T09:05:05.861Z,23.27
2017-12-23T09:06:08.346Z,23.62
2017-12-23T09:07:10.874Z,23.25
2017-12-23T09:08:13.313Z,24.50
2017-12-23T09:09:15.825Z,22.70
2017-12-23T09:10:18.352Z,24.37
2017-12-23T09:11:20.824Z,23.70
2017-12-23T09:12:23.296Z,23.52
2017-12-23T09:13:25.776Z,24.70
2017-12-23T09:14:28.252Z,29.35
2017-12-23T09:15:30.729Z,23.08
2017-12-23T09:16:33.187Z,25.95
2017-12-23T09:17:35.668Z,24.12
2017-12-23T09:18:38.141Z,21.90
2017-12-23T09:19:40.595Z,24.60
2017-12-23T09:20:43.079Z,24.02
2017-12-23T09:21:45.552Z,24.60
2017-12-23T09:22:48.044Z,23.50
2017-12-23T09:23:50.539Z,23.20
2017-12-23T09:24:52.995Z,24.67
2017-12-23T09:25:55.482Z,23.38
2017-12-23T09:26:57.942Z,24.58
2017-12-23T09:28:00.415Z,23.48
2017-12-23T09:29:02.892Z,20.83
2017-12-23T09:30:05.369Z,24.15
2017-12-23T09:31:07.846Z,22.13
2017-12-23T09:32:10.321Z,22.23
2017-12-23T09:33:12.784Z,21.85
2017-12-23T09:34:15.257Z,22.35
2017-12-23T09:35:17.728Z,20.85
2017-12-23T09:36:20.220Z,22.40
2017-12-23T09:37:22.693Z,21.67
2017-12-23T09:38:25.153Z,21.05
2017-12-23T09:39:27.633Z,21.92
2017-12-23T09:40:30.271Z,22.70
2017-12-23T09:41:32.806Z,21.67
2017-12-23T09:42:35.262Z,19.75
2017-12-23T09:43:37.740Z,21.50
2017-12-23T09:44:40.194Z,21.98
2017-12-23T09:45:42.654Z,20.10
2017-12-23T09:46:45.164Z,21.33
2017-12-23T09:47:47.627Z,20.50
2017-12-23T09:48:50.091Z,17.85
2017-12-23T09:49:52.562Z,17.98
2017-12-23T09:50:55.030Z,19.30
2017-12-23T09:51:57.536Z,19.00
2017-12-23T09:53:00.021Z,17.25
2017-12-23T09:54:02.498Z,18.37
2017-12-23T09:55:04.991Z,16.77
2017-12-23T09:56:07.461Z,13.32
2017-12-23T09:57:09.964Z,18.67
2017-12-23T09:58:12.426Z,17.55
2017-12-23T09:59:14.899Z,17.73
2017-12-23T10:00:17.369Z,17.27
2017-12-23T10:01:19.829Z,17.05
2017-12-23T10:02:22.306Z,15.80
2017-12-23T10:03:24.778Z,16.52
2017-12-23T10:04:27.238Z,15.95
2017-12-23T10:05:29.720Z,18.25
2017-12-23T10:06:32.186Z,16.62
2017-12-23T10:07:34.708Z,16.20
2017-12-23T10:08:37.192Z,15.57
2017-12-23T10:09:39.675Z,15.70
2017-12-23T10:10:42.146Z,16.70
2017-12-23T10:11:44.622Z,16.65
2017-12-23T10:12:47.102Z,18.92
2017-12-23T10:13:49.642Z,15.18
2017-12-23T10:14:52.120Z,16.55
2017-12-23T10:15:54.578Z,16.70
2017-12-23T10:16:57.042Z,17.35
2017-12-23T10:17:59.549Z,17.73
2017-12-23T10:19:02.022Z,16.62
2017-12-23T10:20:04.496Z,17.92
2017-12-23T10:21:06.992Z,15.05
2017-12-23T10:22:09.526Z,16.40
2017-12-23T10:23:12.022Z,14.80
2017-12-23T10:24:14.492Z,15.27
2017-12-23T10:25:16.969Z,14.93
2017-12-23T10:26:19.446Z,13.98
2017-12-23T10:27:21.928Z,14.32
2017-12-23T10:28:24.424Z,13.43
2017-12-23T10:29:26.904Z,14.80
2017-12-23T10:30:29.381Z,14.25
2017-12-23T10:31:31.863Z,14.40
2017-12-23T10:32:34.343Z,13.15
2017-12-23T10:33:36.837Z,12.68
2017-12-23T10:34:39.312Z,13.50
2017-12-23T10:35:41.770Z,13.30
2017-12-23T10:36:44.248Z,12.93
2017-12-23T10:37:46.715Z,13.27
2017-12-23T10:38:49.234Z,12.85
2017-12-23T10:39:51.722Z,13.77
2017-12-23T10:40:54.204Z,12.35
2017-12-23T10:41:56.739Z,12.60
2017-12-23T10:42:59.236Z,13.43
2017-12-23T10:44:01.765Z,13.77
2017-12-23T10:45:04.248Z,11.65
2017-12-23T10:46:06.801Z,11.20
2017-12-23T10:47:09.268Z,12.13
2017-12-23T10:48:12.230Z,11.93
2017-12-23T10:49:14.750Z,11.10
2017-12-23T10:50:17.226Z,10.55
2017-12-23T10:51:19.682Z,11.90
2017-12-23T10:52:22.160Z,12.02
2017-12-23T10:53:24.618Z,12.05
2017-12-23T10:54:27.156Z,11.57
2017-12-23T10:55:29.618Z,9.15
2017-12-23T10:56:32.078Z,10.70
2017-12-23T10:57:34.551Z,12.00
2017-12-23T10:58:37.022Z,11.55
2017-12-23T10:59:39.516Z,10.70
2017-12-23T11:00:41.982Z,10.40
2017-12-23T11:01:44.442Z,10.57
2017-12-23T11:02:46.921Z,10.80
2017-12-23T11:03:49.383Z,10.57
2017-12-23T11:04:51.876Z,9.80
2017-12-23T11:05:54.334Z,10.35
2017-12-23T11:06:56.809Z,9.35
2017-12-23T11:07:59.276Z,9.55
2017-12-23T11:09:01.750Z,10.45
2017-12-23T11:10:04.236Z,9.52
2017-12-23T11:11:06.694Z,10.57
2017-12-23T11:12:09.184Z,10.48
2017-12-23T11:13:11.638Z,10.10
2017-12-23T11:14:14.104Z,10.15
2017-12-23T11:15:16.607Z,10.05
2017-12-23T11:16:19.064Z,9.75
2017-12-23T11:17:21.521Z,9.82
2017-12-23T11:18:23.974Z,8.80
2017-12-23T11:19:26.427Z,8.73
2017-12-23T11:20:28.910Z,10.15
2017-12-23T11:21:31.394Z,11.88
2017-12-23T11:22:33.859Z,9.35
2017-12-23T11:23:36.334Z,9.07
2017-12-23T11:24:38.958Z,7.45
2017-12-23T11:25:41.434Z,7.82
2017-12-23T11:26:43.905Z,7.60
2017-12-23T11:27:46.372Z,7.32
2017-12-23T11:28:48.824Z,7.72
2017-12-23T11:29:51.301Z,7.00
2017-12-23T11:30:53.805Z,7.47
2017-12-23T11:31:56.275Z,8.52
2017-12-23T11:32:58.740Z,6.32
2017-12-23T11:34:01.206Z,5.43
2017-12-23T11:35:03.668Z,5.75
2017-12-23T11:36:06.142Z,5.53
2017-12-23T11:37:08.608Z,5.20
2017-12-23T11:38:11.062Z,5.80
2017-12-23T11:39:13.515Z,5.10
2017-12-23T11:40:15.971Z,5.05
2017-12-23T11:41:18.461Z,5.12
2017-12-23T11:42:20.928Z,5.20
2017-12-23T11:43:23.380Z,5.22
2017-12-23T11:44:25.849Z,5.10
2017-12-23T11:45:28.303Z,4.75
2017-12-23T11:46:30.795Z,6.37
2017-12-23T11:47:33.255Z,5.55
2017-12-23T11:48:35.774Z,6.30
2017-12-23T11:49:38.231Z,6.05
2017-12-23T11:50:40.715Z,6.40
2017-12-23T11:51:43.186Z,6.78
2017-12-23T11:52:45.652Z,6.10
2017-12-23T11:53:48.121Z,6.15
2017-12-23T11:54:50.570Z,6.78
2017-12-23T11:55:53.032Z,7.03
2017-12-23T11:56:55.525Z,5.78
2017-12-23T11:57:58.001Z,7.07
2017-12-23T11:59:00.489Z,6.50
2017-12-23T12:00:02.943Z,6.40
2017-12-23T12:01:05.412Z,5.20
2017-12-23T12:02:07.890Z,4.07
2017-12-23T12:03:10.364Z,5.30
2017-12-23T12:04:12.814Z,3.87
2017-12-23T12:05:15.276Z,4.32
2017-12-23T12:06:17.741Z,4.10
2017-12-23T12:07:20.229Z,3.78
2017-12-23T12:08:22.693Z,3.03
2017-12-23T12:09:25.157Z,2.75
2017-12-23T12:10:27.606Z,3.08
2017-12-23T12:11:30.059Z,3.53
2017-12-23T12:12:32.535Z,2.75
2017-12-23T12:13:35.001Z,2.45
2017-12-23T12:14:37.451Z,2.85
2017-12-23T12:15:39.930Z,2.12
2017-12-23T12:16:42.386Z,3.25
2017-12-23T12:17:44.874Z,3.08
2017-12-23T12:18:47.324Z,2.45
2017-12-23T12:19:49.787Z,2.28
2017-12-23T12:20:52.261Z,2.20
2017-12-23T12:21:54.731Z,2.42
2017-12-23T12:22:57.217Z,2.40
2017-12-23T12:23:59.675Z,2.10
2017-12-23T12:25:02.144Z,1.85
2017-12-23T12:26:04.625Z,2.30
2017-12-23T12:27:07.082Z,2.10
2017-12-23T12:28:09.568Z,2.95
2017-12-23T12:29:12.041Z,2.97
2017-12-23T12:30:14.505Z,2.00
2017-12-23T12:31:16.967Z,2.00
2017-12-23T12:32:19.442Z,1.75
2017-12-23T12:33:21.909Z,1.90
2017-12-23T12:34:24.385Z,2.08
2017-12-23T12:35:26.860Z,2.30
2017-12-23T12:36:29.348Z,2.50
2017-12-23T12:37:31.817Z,2.25
2017-12-23T12:38:34.314Z,2.65
2017-12-23T12:39:36.792Z,2.33
2017-12-23T12:40:39.256Z,1.80
2017-12-23T12:41:41.829Z,2.00
2017-12-23T12:42:44.390Z,1.90
2017-12-23T12:43:46.941Z,2.45
2017-12-23T12:44:49.418Z,3.28
2017-12-23T12:45:51.883Z,2.10
2017-12-23T12:46:54.357Z,2.20
2017-12-23T12:47:56.803Z,1.90
2017-12-23T12:48:59.284Z,2.35
2017-12-23T12:50:01.732Z,2.85
2017-12-23T12:51:04.209Z,1.85
2017-12-23T12:52:06.662Z,1.75
2017-12-23T12:53:09.130Z,1.45
2017-12-23T12:54:11.617Z,1.60
2017-12-23T12:55:14.082Z,1.30
2017-12-23T12:56:16.653Z,1.67
2017-12-23T12:57:19.106Z,2.33
2017-12-23T12:58:21.585Z,2.55
2017-12-23T12:59:24.058Z,1.85
2017-12-23T13:00:26.544Z,1.90
2017-12-23T13:01:28.994Z,2.20
2017-12-23T13:02:31.446Z,2.35
2017-12-23T13:03:33.899Z,2.20
2017-12-23T13:04:36.370Z,1.50
2017-12-23T13:05:38.849Z,2.00
2017-12-23T13:06:41.310Z,1.80
2017-12-23T13:07:43.824Z,2.03
2017-12-23T13:08:46.292Z,2.00
2017-12-23T13:09:48.762Z,2.90
2017-12-23T13:10:51.233Z,3.03
2017-12-23T13:11:53.696Z,2.97
2017-12-23T13:12:56.160Z,3.45
2017-12-23T13:13:58.628Z,4.20
2017-12-23T13:15:01.102Z,3.78
2017-12-23T13:16:03.569Z,4.32
2017-12-23T13:17:06.044Z,4.45
2017-12-23T13:18:08.571Z,3.95
2017-12-23T13:19:11.110Z,4.25
2017-12-23T13:20:13.578Z,3.85
2017-12-23T13:21:16.042Z,4.25
2017-12-23T13:22:18.490Z,4.00
2017-12-23T13:23:20.961Z,4.30
2017-12-23T13:24:23.428Z,5.75
2017-12-23T13:25:25.906Z,5.32
2017-12-23T13:26:28.373Z,4.80
2017-12-23T13:27:30.840Z,5.35
2017-12-23T13:28:33.308Z,5.43